createdAt,value
2023-05-05T00:00:13.650Z,17.83
2023-05-05T00:02:40.193Z,17.85
2023-05-05T00:05:07.740Z,17.91
2023-05-05T00:07:36.340Z,17.96
2023-05-05T00:10:02.928Z,18.02
2023-05-05T00:12:30.546Z,18.06
2023-05-05T00:14:57.129Z,18.12
2023-05-05T00:17:24.732Z,18.18
2023-05-05T00:19:52.292Z,18.19
2023-05-05T00:22:19.902Z,18.22
2023-05-05T00:24:46.767Z,18.25
2023-05-05T00:27:13.238Z,18.27
2023-05-05T00:29:39.659Z,18.47
2023-05-05T00:32:06.071Z,18.66
2023-05-05T00:34:33.807Z,18.33
2023-05-05T00:37:00.412Z,18.13
2023-05-05T00:39:27.024Z,18.13
2023-05-05T00:41:55.650Z,18.08
2023-05-05T00:44:24.221Z,18.09
2023-05-05T00:46:51.855Z,18.09
2023-05-05T00:49:19.409Z,18.19
2023-05-05T00:51:47.004Z,18.09
2023-05-05T00:54:13.584Z,18.13
2023-05-05T00:56:40.161Z,18.30
2023-05-05T00:59:07.764Z,18.30
2023-05-05T01:01:34.420Z,18.40
2023-05-05T01:04:02.025Z,18.32
2023-05-05T01:06:29.540Z,18.28
2023-05-05T01:08:57.109Z,18.01
2023-05-05T01:11:23.739Z,17.82
2023-05-05T01:13:50.308Z,17.93
2023-05-05T01:16:18.916Z,17.99
2023-05-05T01:18:46.517Z,17.93
2023-05-05T01:21:13.083Z,17.81
2023-05-05T01:23:40.679Z,17.80
2023-05-05T01:26:07.288Z,17.86
2023-05-05T01:28:34.865Z,17.92
2023-05-05T01:31:02.480Z,17.90
2023-05-05T01:33:29.061Z,17.92
2023-05-05T01:35:55.677Z,17.94
2023-05-05T01:38:22.495Z,17.96
2023-05-05T01:40:49.850Z,17.94
2023-05-05T01:43:16.481Z,17.89
2023-05-05T01:45:43.080Z,17.89
2023-05-05T01:48:09.672Z,18.00
2023-05-05T01:50:36.258Z,17.86
2023-05-05T01:53:03.116Z,17.85
2023-05-05T01:55:30.439Z,17.89
2023-05-05T01:57:58.029Z,17.83
2023-05-05T02:00:26.654Z,17.69
2023-05-05T02:02:54.302Z,17.66
2023-05-05T02:05:21.797Z,17.58
2023-05-05T02:07:48.245Z,17.57
2023-05-05T02:10:14.659Z,17.58
2023-05-05T02:12:41.152Z,17.58
2023-05-05T02:15:08.225Z,17.56
2023-05-05T02:17:35.836Z,17.60
2023-05-05T02:20:03.397Z,17.66
2023-05-05T02:22:29.985Z,17.69
2023-05-05T02:24:56.600Z,17.44
2023-05-05T02:27:23.177Z,17.43
2023-05-05T02:29:51.771Z,17.22
2023-05-05T02:32:18.347Z,17.47
2023-05-05T02:34:45.948Z,17.06
2023-05-05T02:37:12.552Z,16.92
2023-05-05T02:39:40.125Z,16.86
2023-05-05T02:42:06.709Z,16.83
2023-05-05T02:44:34.310Z,16.83
2023-05-05T02:47:01.900Z,16.88
2023-05-05T02:49:29.482Z,16.85
2023-05-05T02:51:56.096Z,16.88
2023-05-05T02:54:22.679Z,16.90
2023-05-05T02:56:50.263Z,16.93
2023-05-05T02:59:17.848Z,16.94
2023-05-05T03:01:45.487Z,16.92
2023-05-05T03:04:11.987Z,16.94
2023-05-05T03:06:38.414Z,16.92
2023-05-05T03:09:04.836Z,16.94
2023-05-05T03:11:31.285Z,16.95
2023-05-05T03:13:57.705Z,16.91
2023-05-05T03:16:24.148Z,16.89
2023-05-05T03:18:50.585Z,16.87
2023-05-05T03:21:17.023Z,16.84
2023-05-05T03:23:43.764Z,16.83
2023-05-05T03:26:11.365Z,16.82
2023-05-05T03:28:37.933Z,16.82
2023-05-05T03:31:06.530Z,16.82
2023-05-05T03:33:32.992Z,16.80
2023-05-05T03:35:59.717Z,16.81
2023-05-05T03:38:28.322Z,16.79
2023-05-05T03:40:55.913Z,16.78
2023-05-05T03:43:22.495Z,16.76
2023-05-05T03:45:49.125Z,16.76
2023-05-05T03:48:17.684Z,16.73
2023-05-05T03:50:46.421Z,16.70
2023-05-05T03:53:13.869Z,16.66
2023-05-05T03:55:41.461Z,16.58
2023-05-05T03:58:08.033Z,16.54
2023-05-05T04:00:36.638Z,16.51
2023-05-05T04:03:04.354Z,16.47
2023-05-05T04:05:31.823Z,16.40
2023-05-05T04:07:58.449Z,16.35
2023-05-05T04:10:25.268Z,16.30
2023-05-05T04:12:52.677Z,16.29
2023-05-05T04:15:20.185Z,16.31
2023-05-05T04:17:46.804Z,16.23
2023-05-05T04:20:13.679Z,16.13
2023-05-05T04:22:40.098Z,16.11
2023-05-05T04:25:06.524Z,16.15
2023-05-05T04:27:32.982Z,16.19
2023-05-05T04:29:59.491Z,16.22
2023-05-05T04:32:25.950Z,16.27
2023-05-05T04:34:52.422Z,16.24
2023-05-05T04:37:19.515Z,16.22
2023-05-05T04:39:47.044Z,16.24
2023-05-05T04:42:13.621Z,16.26
2023-05-05T04:44:40.232Z,16.24
2023-05-05T04:47:06.736Z,16.27
2023-05-05T04:49:33.144Z,16.30
2023-05-05T04:51:59.623Z,16.34
2023-05-05T04:54:26.604Z,16.38
2023-05-05T04:56:54.206Z,16.43
2023-05-05T04:59:21.780Z,16.45
2023-05-05T05:01:50.448Z,16.48
2023-05-05T05:04:16.906Z,16.56
2023-05-05T05:06:43.339Z,16.62
2023-05-05T05:09:09.754Z,16.70
2023-05-05T05:11:37.841Z,16.80
2023-05-05T05:14:05.386Z,16.85
2023-05-05T05:16:34.012Z,16.87
2023-05-05T05:19:01.886Z,16.80
2023-05-05T05:21:28.508Z,16.76
2023-05-05T05:23:54.956Z,16.79
2023-05-05T05:26:21.372Z,16.86
2023-05-05T05:28:47.954Z,16.89
2023-05-05T05:31:16.554Z,16.91
2023-05-05T05:33:43.145Z,16.92
2023-05-05T05:36:10.729Z,16.93
2023-05-05T05:38:37.319Z,16.98
2023-05-05T05:41:03.895Z,16.96
2023-05-05T05:43:30.472Z,16.97
2023-05-05T05:45:57.135Z,16.97
2023-05-05T05:48:24.678Z,17.00
2023-05-05T05:50:52.244Z,17.01
2023-05-05T05:53:18.832Z,17.07
2023-05-05T05:55:45.279Z,17.05
2023-05-05T05:58:12.000Z,17.11
2023-05-05T06:00:38.600Z,17.16
2023-05-05T06:03:05.308Z,17.22
2023-05-05T06:05:32.765Z,17.23
2023-05-05T06:07:59.424Z,17.29
2023-05-05T06:10:28.247Z,17.36
2023-05-05T06:12:55.618Z,17.46
2023-05-05T06:15:23.185Z,17.51
2023-05-05T06:17:50.785Z,17.54
2023-05-05T06:20:18.372Z,17.53
2023-05-05T06:22:45.917Z,17.47
2023-05-05T06:25:12.596Z,17.45
2023-05-05T06:27:39.155Z,17.40
2023-05-05T06:30:08.029Z,17.37
2023-05-05T06:32:35.425Z,17.40
2023-05-05T06:35:03.018Z,17.46
2023-05-05T06:37:30.641Z,17.58
2023-05-05T06:39:57.254Z,17.65
2023-05-05T06:42:25.833Z,17.66
2023-05-05T06:44:54.753Z,17.77
2023-05-05T06:47:21.180Z,17.90
2023-05-05T06:49:50.105Z,17.98
2023-05-05T06:52:17.194Z,18.02
2023-05-05T06:54:43.784Z,18.07
2023-05-05T06:57:11.416Z,18.05
2023-05-05T06:59:37.851Z,18.06
2023-05-05T07:02:04.351Z,18.11
2023-05-05T07:04:30.823Z,18.09
2023-05-05T07:06:57.894Z,18.13
2023-05-05T07:09:25.340Z,18.12
2023-05-05T07:11:53.947Z,18.00
2023-05-05T07:14:24.164Z,17.97
2023-05-05T07:16:51.192Z,17.87
2023-05-05T07:19:18.741Z,17.90
2023-05-05T07:21:47.325Z,18.00
2023-05-05T07:24:13.902Z,18.12
2023-05-05T07:26:40.486Z,18.18
2023-05-05T07:29:07.100Z,18.17
2023-05-05T07:31:34.970Z,18.25
2023-05-05T07:39:48.633Z,18.53
2023-05-05T07:42:18.449Z,18.56
2023-05-05T07:50:27.216Z,18.71
2023-05-05T07:53:02.493Z,18.94
2023-05-05T07:55:42.756Z,19.08
2023-05-05T07:58:19.520Z,19.27
2023-05-05T08:17:02.575Z,19.99
2023-05-05T08:19:30.335Z,20.09
2023-05-05T08:27:27.613Z,20.23
2023-05-05T08:32:39.501Z,20.35
2023-05-05T08:43:08.139Z,20.84
2023-05-05T08:45:40.009Z,20.93
2023-05-05T08:56:11.369Z,20.94
2023-05-05T08:58:41.184Z,21.03
2023-05-05T09:06:39.309Z,21.32
2023-05-05T09:11:51.263Z,21.53
2023-05-05T09:17:12.377Z,21.67
2023-05-05T09:19:55.470Z,21.71
2023-05-05T09:25:11.273Z,21.91
2023-05-05T09:33:08.601Z,22.42
2023-05-05T09:38:20.337Z,22.61
2023-05-05T09:40:54.121Z,22.56
2023-05-05T09:43:43.462Z,22.46
2023-05-05T09:49:02.323Z,22.20
2023-05-05T09:51:51.303Z,22.11
2023-05-05T09:54:19.282Z,22.08
2023-05-05T09:59:35.574Z,22.00
2023-05-05T10:04:52.516Z,21.97
2023-05-05T10:18:12.998Z,21.96
2023-05-05T10:31:37.459Z,22.32
2023-05-05T10:34:07.152Z,22.31
2023-05-05T10:42:17.866Z,22.62
2023-05-05T10:47:25.234Z,22.86
2023-05-05T10:55:30.925Z,23.14
2023-05-05T11:00:46.496Z,23.32
2023-05-05T11:03:36.891Z,23.37
2023-05-05T11:06:08.511Z,23.26
2023-05-05T11:08:47.970Z,23.42
2023-05-05T11:11:41.141Z,23.44
2023-05-05T11:14:10.673Z,23.49
2023-05-05T11:16:40.631Z,23.55
2023-05-05T11:22:05.019Z,23.67
2023-05-05T11:27:21.692Z,23.83
2023-05-05T11:29:58.399Z,23.96
2023-05-05T11:40:44.160Z,24.34
2023-05-05T11:45:54.122Z,24.05
2023-05-05T11:51:03.630Z,23.74
2023-05-05T11:53:38.139Z,23.59
2023-05-05T11:56:05.847Z,23.49
2023-05-05T11:58:35.509Z,23.40
2023-05-05T12:01:05.017Z,23.32
2023-05-05T12:03:33.738Z,23.21
2023-05-05T12:06:05.087Z,23.14
2023-05-05T12:08:33.838Z,23.26
2023-05-05T12:11:02.880Z,23.52
2023-05-05T12:13:32.045Z,23.61
2023-05-05T12:16:09.656Z,23.84
2023-05-05T12:18:37.265Z,23.82
2023-05-05T12:21:07.309Z,23.74
2023-05-05T12:23:36.469Z,23.67
2023-05-05T12:26:07.994Z,23.73
2023-05-05T12:31:15.446Z,23.70
2023-05-05T12:33:42.908Z,23.77
2023-05-05T12:36:09.783Z,23.90
2023-05-05T12:38:38.103Z,23.88
2023-05-05T12:41:06.716Z,23.93
2023-05-05T12:43:34.628Z,23.89
2023-05-05T12:46:03.530Z,23.74
2023-05-05T12:48:30.470Z,23.54
2023-05-05T12:50:58.096Z,23.38
2023-05-05T12:53:25.650Z,23.13
2023-05-05T12:55:52.254Z,22.82
2023-05-05T12:58:19.848Z,22.47
2023-05-05T13:00:48.468Z,22.13
2023-05-05T13:03:16.087Z,21.84
2023-05-05T13:05:43.630Z,21.54
2023-05-05T13:08:10.263Z,21.21
2023-05-05T13:10:39.240Z,20.97
2023-05-05T13:13:06.590Z,20.10
2023-05-05T13:15:34.145Z,18.91
2023-05-05T13:18:01.952Z,17.73
2023-05-05T13:20:29.399Z,16.95
2023-05-05T13:22:56.059Z,15.90
2023-05-05T13:25:23.647Z,15.58
2023-05-05T13:27:50.540Z,15.39
2023-05-05T13:30:17.901Z,15.08
2023-05-05T13:32:45.522Z,14.88
2023-05-05T13:35:15.983Z,14.70
2023-05-05T13:37:43.705Z,14.55
2023-05-05T13:40:11.283Z,14.10
2023-05-05T13:42:43.875Z,13.96
2023-05-05T13:51:21.905Z,15.06
2023-05-05T14:24:36.992Z,18.13
2023-05-05T14:27:12.908Z,18.09
2023-05-05T14:32:33.713Z,17.75
2023-05-05T14:35:00.634Z,17.63
2023-05-05T14:37:31.011Z,17.71
2023-05-05T14:40:09.817Z,17.60
2023-05-05T14:42:37.714Z,17.51
2023-05-05T14:45:07.544Z,17.57
2023-05-05T14:47:42.001Z,17.73
2023-05-05T14:50:14.395Z,17.75
2023-05-05T14:52:43.555Z,17.78
2023-05-05T14:55:12.643Z,17.95
2023-05-05T14:57:41.917Z,18.25
2023-05-05T15:00:09.734Z,18.35
2023-05-05T15:02:38.377Z,18.52
2023-05-05T15:05:08.171Z,18.72
2023-05-05T15:07:35.571Z,18.77
2023-05-05T15:10:05.332Z,18.49
2023-05-05T15:12:32.743Z,18.52
2023-05-05T15:15:02.027Z,18.28
2023-05-05T15:17:29.972Z,18.42
2023-05-05T15:19:59.036Z,18.38
2023-05-05T15:22:27.193Z,18.54
2023-05-05T15:24:56.184Z,18.55
2023-05-05T15:27:24.415Z,18.75
2023-05-05T15:29:53.575Z,18.92
2023-05-05T15:32:20.820Z,19.14
2023-05-05T15:34:49.003Z,19.63
2023-05-05T15:37:18.743Z,19.93
2023-05-05T15:39:47.340Z,20.10
2023-05-05T15:42:15.156Z,20.43
2023-05-05T15:44:42.526Z,20.94
2023-05-05T15:47:10.154Z,20.78
2023-05-05T15:49:38.709Z,20.34
2023-05-05T15:52:06.278Z,19.99
2023-05-05T15:54:33.930Z,20.06
2023-05-05T15:57:01.467Z,19.80
2023-05-05T15:59:29.066Z,19.63
2023-05-05T16:01:57.635Z,19.60
2023-05-05T16:04:26.250Z,19.52
2023-05-05T16:06:54.879Z,19.36
2023-05-05T16:09:23.451Z,19.23
2023-05-05T16:11:51.098Z,19.19
2023-05-05T16:14:18.647Z,18.98
2023-05-05T16:16:48.289Z,18.96
2023-05-05T16:19:16.880Z,18.81
2023-05-05T16:21:44.452Z,18.88
2023-05-05T16:24:13.062Z,18.72
2023-05-05T16:26:40.653Z,18.70
2023-05-05T16:29:08.256Z,18.68
2023-05-05T16:31:35.887Z,18.51
2023-05-05T16:34:03.466Z,18.48
2023-05-05T16:36:29.923Z,18.57
2023-05-05T16:38:57.667Z,18.52
2023-05-05T16:41:26.778Z,18.36
2023-05-05T16:43:53.848Z,18.28
2023-05-05T16:46:20.385Z,18.01
2023-05-05T16:48:47.025Z,18.44
2023-05-05T16:51:14.636Z,18.61
2023-05-05T16:53:42.203Z,18.29
2023-05-05T16:56:09.873Z,18.35
2023-05-05T16:58:38.812Z,18.61
2023-05-05T17:01:06.049Z,18.86
2023-05-05T17:03:34.994Z,19.08
2023-05-05T17:06:02.315Z,19.00
2023-05-05T17:08:29.910Z,19.47
2023-05-05T17:10:59.153Z,19.27
2023-05-05T17:13:27.038Z,19.42
2023-05-05T17:15:55.924Z,19.50
2023-05-05T17:18:25.246Z,19.29
2023-05-05T17:20:51.965Z,19.35
2023-05-05T17:23:19.591Z,19.48
2023-05-05T17:25:47.144Z,19.48
2023-05-05T17:28:14.752Z,19.50
2023-05-05T17:30:41.870Z,19.57
2023-05-05T17:33:08.384Z,19.71
2023-05-05T17:35:35.861Z,20.01
2023-05-05T17:38:03.465Z,19.95
2023-05-05T17:40:30.062Z,19.88
2023-05-05T17:42:58.464Z,19.66
2023-05-05T17:45:26.051Z,19.52
2023-05-05T17:47:55.446Z,19.64
2023-05-05T17:50:22.326Z,19.50
2023-05-05T17:52:49.870Z,19.46
2023-05-05T17:55:16.496Z,19.44
2023-05-05T17:57:45.106Z,19.24
2023-05-05T18:00:11.712Z,19.15
2023-05-05T18:02:46.044Z,19.18
2023-05-05T18:05:13.920Z,18.88
2023-05-05T18:07:41.511Z,18.93
2023-05-05T18:10:09.097Z,18.90
2023-05-05T18:12:36.745Z,18.53
2023-05-05T18:15:03.665Z,18.42
2023-05-05T18:17:30.948Z,18.62
2023-05-05T18:19:58.536Z,18.38
2023-05-05T18:22:25.343Z,18.59
2023-05-05T18:24:52.716Z,18.67
2023-05-05T18:27:20.355Z,18.50
2023-05-05T18:29:47.893Z,18.39
2023-05-05T18:32:15.486Z,18.37
2023-05-05T18:34:44.137Z,18.34
2023-05-05T18:37:11.691Z,18.13
2023-05-05T18:39:39.336Z,18.09
2023-05-05T18:42:06.917Z,17.83
2023-05-05T18:44:34.512Z,17.65
2023-05-05T18:47:02.221Z,17.56
2023-05-05T18:49:31.266Z,17.47
2023-05-05T18:51:58.334Z,17.31
2023-05-05T18:54:24.934Z,17.33
2023-05-05T18:56:51.504Z,17.25
2023-05-05T18:59:19.110Z,17.25
2023-05-05T19:01:46.701Z,17.32
2023-05-05T19:04:27.175Z,17.28
2023-05-05T19:06:58.048Z,17.36
2023-05-05T19:09:25.634Z,17.54
2023-05-05T19:11:52.211Z,17.51
2023-05-05T19:14:21.201Z,17.34
2023-05-05T19:16:48.445Z,17.22
2023-05-05T19:19:15.977Z,17.20
2023-05-05T19:21:43.550Z,17.23
2023-05-05T19:24:11.152Z,17.26
2023-05-05T19:26:38.732Z,17.52
2023-05-05T19:29:06.350Z,17.45
2023-05-05T19:31:33.227Z,17.39
2023-05-05T19:34:00.521Z,17.34
2023-05-05T19:36:28.117Z,17.44
2023-05-05T19:38:55.699Z,17.48
2023-05-05T19:41:22.311Z,17.85
2023-05-05T19:43:50.909Z,17.64
2023-05-05T19:46:18.507Z,17.47
2023-05-05T19:48:47.093Z,17.10
2023-05-05T19:51:14.670Z,16.96
2023-05-05T19:53:42.295Z,17.16
2023-05-05T19:56:09.162Z,17.16
2023-05-05T19:58:37.441Z,17.37
2023-05-05T20:01:05.089Z,17.25
2023-05-05T20:03:32.754Z,17.10
2023-05-05T20:06:01.429Z,17.05
2023-05-05T20:08:30.197Z,16.89
2023-05-05T20:10:58.434Z,16.90
2023-05-05T20:13:26.010Z,16.98
2023-05-05T20:15:53.654Z,17.07
2023-05-05T20:18:20.413Z,17.17
2023-05-05T20:20:49.530Z,17.24
2023-05-05T20:23:16.366Z,17.26
2023-05-05T20:25:42.988Z,17.33
2023-05-05T20:28:10.559Z,17.45
2023-05-05T20:30:38.150Z,17.60
2023-05-05T20:33:07.264Z,17.49
2023-05-05T20:35:34.361Z,17.67
2023-05-05T20:38:03.376Z,17.62
2023-05-05T20:40:30.843Z,17.45
2023-05-05T20:42:58.188Z,17.54
2023-05-05T20:45:25.221Z,17.67
2023-05-05T20:47:52.403Z,17.28
2023-05-05T20:50:21.300Z,17.16
2023-05-05T20:52:48.561Z,17.16
2023-05-05T20:55:16.205Z,17.54
2023-05-05T20:57:43.793Z,17.55
2023-05-05T21:00:13.031Z,17.31
2023-05-05T21:02:41.462Z,17.18
2023-05-05T21:05:09.893Z,16.93
2023-05-05T21:07:37.524Z,16.77
2023-05-05T21:10:06.169Z,16.66
2023-05-05T21:12:34.774Z,16.63
2023-05-05T21:15:03.332Z,16.68
2023-05-05T21:17:31.937Z,16.89
2023-05-05T21:19:59.575Z,16.78
2023-05-05T21:22:27.157Z,16.55
2023-05-05T21:24:55.768Z,16.44
2023-05-05T21:27:22.523Z,16.27
2023-05-05T21:29:49.361Z,15.94
2023-05-05T21:32:16.837Z,15.70
2023-05-05T21:34:44.452Z,15.79
2023-05-05T21:37:12.002Z,15.48
2023-05-05T21:39:41.845Z,15.84
2023-05-05T21:42:10.214Z,15.64
2023-05-05T21:44:39.166Z,15.46
2023-05-05T21:47:07.412Z,15.55
2023-05-05T21:49:35.989Z,15.39
2023-05-05T21:52:03.590Z,15.42
2023-05-05T21:54:31.255Z,15.33
2023-05-05T21:56:59.779Z,15.41
2023-05-05T21:59:28.839Z,15.43
2023-05-05T22:01:57.098Z,15.21
2023-05-05T22:04:23.954Z,15.12
2023-05-05T22:06:53.082Z,15.21
2023-05-05T22:09:20.749Z,15.15
2023-05-05T22:11:48.341Z,15.12
2023-05-05T22:14:15.953Z,15.62
2023-05-05T22:16:44.553Z,15.33
2023-05-05T22:19:12.105Z,15.37
2023-05-05T22:21:40.788Z,15.37
2023-05-05T22:24:08.309Z,15.70
2023-05-05T22:26:35.147Z,15.71
2023-05-05T22:29:03.522Z,15.54
2023-05-05T22:31:31.159Z,15.55
2023-05-05T22:33:58.681Z,15.54
2023-05-05T22:36:26.514Z,15.63
2023-05-05T22:38:53.895Z,15.63
2023-05-05T22:41:21.510Z,15.69
2023-05-05T22:43:49.046Z,15.94
2023-05-05T22:46:17.665Z,15.84
2023-05-05T22:48:46.425Z,15.71
2023-05-05T22:51:13.839Z,15.58
2023-05-05T22:53:42.429Z,15.56
2023-05-05T22:56:10.022Z,15.55
2023-05-05T22:58:38.652Z,15.62
2023-05-05T23:01:06.278Z,15.57
2023-05-05T23:03:33.830Z,15.43
2023-05-05T23:06:01.443Z,15.30
2023-05-05T23:08:29.029Z,15.25
2023-05-05T23:10:58.125Z,15.33
2023-05-05T23:13:25.304Z,15.37
2023-05-05T23:15:53.982Z,15.39
2023-05-05T23:18:22.587Z,15.66
2023-05-05T23:20:50.181Z,15.78
2023-05-05T23:23:18.968Z,15.68
2023-05-05T23:25:47.703Z,15.44
2023-05-05T23:28:16.752Z,15.27
2023-05-05T23:30:45.628Z,15.19
2023-05-05T23:33:14.665Z,15.18
2023-05-05T23:35:41.768Z,15.22
2023-05-05T23:38:09.395Z,15.28
2023-05-05T23:40:37.099Z,15.30
2023-05-05T23:43:04.555Z,15.39
2023-05-05T23:45:31.165Z,15.45
2023-05-05T23:47:57.802Z,15.52
2023-05-05T23:50:25.356Z,15.59
2023-05-05T23:52:54.728Z,15.61
2023-05-05T23:55:21.577Z,15.66
2023-05-05T23:57:49.136Z,15.67
